Time;durP1;ratioP1;P1;durP2;ratioP2;P2;SDS_P1;SDS_P2;PMS_P1;PMS_P2;Temp;Humidity;BMP_temperature;BMP_pressure;BME280_temperature;BME280_humidity;BME280_pressure;Samples;Min_cycle;Max_cycle;Signal;HPM_P1;HPM_P2
2023/12/01 00:00:32;;;;;;;;;56.50;44.25;;;;;;;;5067327;28;11528;-79
2023/12/01 00:03:02;;;;;;;;;53.00;43.00;;;;;;;;5069204;28;11554;-78
2023/12/01 00:05:29;;;;;;;;;55.25;45.25;;;;;;;;5068867;28;11557;-79
2023/12/01 00:07:56;;;;;;;;;60.75;45.75;;;;;;;;5069480;28;12327;-79
2023/12/01 00:10:28;;;;;;;;;58.25;43.75;;;;;;;;5067027;28;11568;-78
2023/12/01 00:12:55;;;;;;;;;51.25;40.00;;;;;;;;5069419;28;12344;-78
2023/12/01 00:15:22;;;;;;;;;55.25;44.25;;;;;;;;5069079;28;11617;-78
2023/12/01 00:17:50;;;;;;;;;51.00;41.00;;;;;;;;5069283;28;11685;-78
2023/12/01 00:20:18;;;;;;;;;64.00;50.00;;;;;;;;5068173;28;11560;-79
2023/12/01 00:22:45;;;;;;;;;57.75;44.75;;;;;;;;5068739;28;11578;-79
2023/12/01 00:25:12;;;;;;;;;58.25;45.75;;;;;;;;5065005;28;11573;-79
2023/12/01 00:27:41;;;;;;;;;47.25;41.00;;;;;;;;5068748;28;11542;-79
2023/12/01 00:30:09;;;;;;;;;58.50;48.00;;;;;;;;5067925;28;11512;-80
2023/12/01 00:32:36;;;;;;;;;53.50;44.75;;;;;;;;5070029;28;11643;-79
2023/12/01 00:35:03;;;;;;;;;54.00;45.25;;;;;;;;5070383;28;11534;-79
2023/12/01 00:37:31;;;;;;;;;56.50;46.75;;;;;;;;5064574;28;11681;-77
2023/12/01 00:40:02;;;;;;;;;56.50;48.25;;;;;;;;5068773;28;11546;-78
2023/12/01 00:42:29;;;;;;;;;56.75;45.00;;;;;;;;5068394;28;11536;-76
2023/12/01 00:44:58;;;;;;;;;54.25;42.00;;;;;;;;5068629;28;11554;-78
2023/12/01 00:47:25;;;;;;;;;50.75;42.75;;;;;;;;5068012;28;11605;-78
2023/12/01 00:49:53;;;;;;;;;46.75;40.50;;;;;;;;5065893;28;11660;-78
2023/12/01 00:52:20;;;;;;;;;49.25;41.75;;;;;;;;5068488;28;11527;-79
2023/12/01 00:54:47;;;;;;;;;51.25;44.25;;;;;;;;5068634;28;11537;-78
2023/12/01 00:57:14;;;;;;;;;48.00;40.00;;;;;;;;5068502;28;11527;-78
2023/12/01 00:59:43;;;;;;;;;56.00;44.25;;;;;;;;5060947;28;11558;-77
2023/12/01 01:02:12;;;;;;;;;59.75;47.50;;;;;;;;5070606;28;11501;-77
2023/12/01 01:04:39;;;;;;;;;53.50;44.50;;;;;;;;5062189;28;11557;-78
2023/12/01 01:07:07;;;;;;;;;45.00;39.75;;;;;;;;5063857;28;11549;-79
2023/12/01 01:09:34;;;;;;;;;53.25;43.50;;;;;;;;5063642;28;11672;-78
2023/12/01 01:12:01;;;;;;;;;47.25;41.25;;;;;;;;5057689;28;11552;-78
2023/12/01 01:14:28;;;;;;;;;54.25;46.00;;;;;;;;5061418;28;11598;-78
2023/12/01 01:16:56;;;;;;;;;56.00;44.25;;;;;;;;5070306;28;11669;-78
2023/12/01 01:19:24;;;;;;;;;48.25;43.75;;;;;;;;5069108;28;11533;-78
2023/12/01 01:21:54;;;;;;;;;57.75;46.50;;;;;;;;5069742;28;11515;-78
2023/12/01 01:24:21;;;;;;;;;59.50;49.00;;;;;;;;5071248;28;11673;-78
2023/12/01 01:26:49;;;;;;;;;56.00;46.00;;;;;;;;5068649;28;11604;-78
2023/12/01 01:29:16;;;;;;;;;55.00;45.25;;;;;;;;5069106;28;11563;-78
2023/12/01 01:31:43;;;;;;;;;51.75;44.50;;;;;;;;5066177;28;11507;-79
2023/12/01 01:34:13;;;;;;;;;59.75;45.50;;;;;;;;5067890;28;11536;-78
2023/12/01 01:36:44;;;;;;;;;58.25;44.00;;;;;;;;5066009;28;11643;-77
2023/12/01 01:39:11;;;;;;;;;60.75;46.75;;;;;;;;5067823;28;11569;-78
2023/12/01 01:41:39;;;;;;;;;58.50;45.25;;;;;;;;5067679;28;11577;-78
2023/12/01 01:44:06;;;;;;;;;49.25;41.25;;;;;;;;5067551;28;11543;-78
2023/12/01 01:46:33;;;;;;;;;60.50;45.50;;;;;;;;5067287;28;11567;-79
2023/12/01 01:49:00;;;;;;;;;53.00;38.25;;;;;;;;5067822;28;11565;-80
2023/12/01 01:51:29;;;;;;;;;55.00;45.50;;;;;;;;5067779;28;11570;-77
2023/12/01 01:53:57;;;;;;;;;55.25;44.75;;;;;;;;5067732;28;11537;-79
2023/12/01 01:56:26;;;;;;;;;60.75;47.25;;;;;;;;5062928;28;11527;-79
2023/12/01 01:58:53;;;;;;;;;60.00;46.50;;;;;;;;5072761;28;11563;-79
2023/12/01 02:01:22;;;;;;;;;62.25;48.00;;;;;;;;5066855;28;11471;-78
2023/12/01 02:03:49;;;;;;;;;61.50;48.25;;;;;;;;5065953;28;12388;-77
2023/12/01 02:06:16;;;;;;;;;60.75;49.50;;;;;;;;5067650;28;11682;-77
2023/12/01 02:08:44;;;;;;;;;52.75;41.75;;;;;;;;5067150;28;11589;-78
2023/12/01 02:11:13;;;;;;;;;54.75;47.00;;;;;;;;5067728;28;12327;-78
2023/12/01 02:13:41;;;;;;;;;60.50;46.00;;;;;;;;5065972;28;11559;-77
2023/12/01 02:16:09;;;;;;;;;58.00;48.75;;;;;;;;5067975;28;11568;-78
2023/12/01 02:18:37;;;;;;;;;56.75;44.75;;;;;;;;5066948;28;11544;-77
2023/12/01 02:21:04;;;;;;;;;56.25;44.50;;;;;;;;5069130;28;11545;-79
2023/12/01 02:23:33;;;;;;;;;57.50;46.50;;;;;;;;5070530;28;11559;-79
2023/12/01 02:26:00;;;;;;;;;50.00;42.75;;;;;;;;5071516;28;11571;-78
2023/12/01 02:28:27;;;;;;;;;59.50;49.00;;;;;;;;5070670;28;11665;-78
2023/12/01 02:30:56;;;;;;;;;47.75;42.75;;;;;;;;5071114;28;11464;-78
2023/12/01 02:33:24;;;;;;;;;59.75;46.25;;;;;;;;5070787;28;11579;-79
2023/12/01 02:35:53;;;;;;;;;49.75;42.50;;;;;;;;5070834;28;12331;-77
2023/12/01 02:38:21;;;;;;;;;57.75;48.50;;;;;;;;5068563;28;12345;-79
2023/12/01 02:40:51;;;;;;;;;57.75;46.75;;;;;;;;5068471;28;11538;-78
2023/12/01 02:43:20;;;;;;;;;57.00;44.25;;;;;;;;5070543;28;11592;-78
2023/12/01 02:45:48;;;;;;;;;63.50;51.50;;;;;;;;5070956;28;11681;-78
2023/12/01 02:48:16;;;;;;;;;58.25;45.25;;;;;;;;5072580;28;11543;-79
2023/12/01 02:50:45;;;;;;;;;57.00;45.75;;;;;;;;5074292;28;11548;-78
2023/12/01 02:53:12;;;;;;;;;63.25;51.00;;;;;;;;5064470;28;11524;-78
2023/12/01 02:55:39;;;;;;;;;45.75;39.50;;;;;;;;5073081;28;11575;-78
2023/12/01 02:58:08;;;;;;;;;62.00;50.00;;;;;;;;5060020;28;11655;-78
2023/12/01 03:00:35;;;;;;;;;64.00;46.75;;;;;;;;5069972;28;11464;-78
2023/12/01 03:03:02;;;;;;;;;16.75;10.50;;;;;;;;5064194;28;11561;-79
2023/12/01 03:05:30;;;;;;;;;55.25;45.25;;;;;;;;5069956;28;11648;-79
2023/12/01 03:08:00;;;;;;;;;51.50;45.25;;;;;;;;5071400;28;11584;-79
2023/12/01 03:10:28;;;;;;;;;55.25;44.00;;;;;;;;5072166;28;11537;-79
2023/12/01 03:12:55;;;;;;;;;44.75;37.50;;;;;;;;5068742;28;11522;-79
2023/12/01 03:15:24;;;;;;;;;58.50;45.75;;;;;;;;5073038;28;11674;-79
2023/12/01 03:17:51;;;;;;;;;56.75;46.00;;;;;;;;5071227;28;11563;-79
2023/12/01 03:20:19;;;;;;;;;57.50;42.00;;;;;;;;5070174;28;11633;-80
2023/12/01 03:22:47;;;;;;;;;56.00;41.25;;;;;;;;5069969;28;12334;-78
2023/12/01 03:25:14;;;;;;;;;60.25;47.50;;;;;;;;5069768;28;11514;-77
2023/12/01 03:27:43;;;;;;;;;58.00;48.00;;;;;;;;5069777;28;11568;-76
2023/12/01 03:30:13;;;;;;;;;51.50;41.50;;;;;;;;5067762;28;11536;-79
2023/12/01 03:32:45;;;;;;;;;50.25;42.50;;;;;;;;5068663;28;11611;-78
2023/12/01 03:35:13;;;;;;;;;59.25;45.25;;;;;;;;5069117;28;11557;-78
2023/12/01 03:37:39;;;;;;;;;58.00;46.25;;;;;;;;5069232;28;12400;-79
2023/12/01 03:40:09;;;;;;;;;43.00;37.25;;;;;;;;5069136;28;11558;-78
2023/12/01 03:42:38;;;;;;;;;65.25;50.75;;;;;;;;5069237;28;11565;-77
2023/12/01 03:45:07;;;;;;;;;56.25;47.00;;;;;;;;5069566;28;11563;-78
2023/12/01 03:47:34;;;;;;;;;49.75;42.25;;;;;;;;5068326;28;11574;-78
2023/12/01 03:50:04;;;;;;;;;55.50;45.75;;;;;;;;5069609;28;11702;-78
2023/12/01 03:52:31;;;;;;;;;41.75;35.50;;;;;;;;5068906;28;11598;-79
2023/12/01 03:54:59;;;;;;;;;58.25;45.00;;;;;;;;5069012;28;11542;-78
2023/12/01 03:57:27;;;;;;;;;53.50;45.00;;;;;;;;5069779;28;11566;-79
2023/12/01 03:59:54;;;;;;;;;60.25;48.00;;;;;;;;5072660;28;11585;-78
2023/12/01 04:02:24;;;;;;;;;51.00;42.75;;;;;;;;5069890;28;11546;-78
2023/12/01 04:04:51;;;;;;;;;53.50;44.75;;;;;;;;5069276;28;11572;-78
2023/12/01 04:07:20;;;;;;;;;46.75;41.25;;;;;;;;5068844;28;11530;-78
2023/12/01 04:09:47;;;;;;;;;58.75;47.75;;;;;;;;5069391;28;11537;-79
2023/12/01 04:12:15;;;;;;;;;55.00;44.75;;;;;;;;5055962;28;11587;-78
2023/12/01 04:14:42;;;;;;;;;51.50;42.75;;;;;;;;5068600;28;11612;-78
2023/12/01 04:17:10;;;;;;;;;52.75;41.00;;;;;;;;5069724;28;11541;-78
2023/12/01 04:19:38;;;;;;;;;55.25;48.00;;;;;;;;5068269;28;12472;-78
2023/12/01 04:22:06;;;;;;;;;52.25;42.00;;;;;;;;5068675;28;11565;-78
2023/12/01 04:24:34;;;;;;;;;58.75;45.75;;;;;;;;5068692;28;11592;-78
2023/12/01 04:27:02;;;;;;;;;55.00;46.25;;;;;;;;5069128;28;11546;-79
2023/12/01 04:29:30;;;;;;;;;45.50;38.00;;;;;;;;5068746;28;12361;-78
2023/12/01 04:31:57;;;;;;;;;44.50;38.75;;;;;;;;5065524;28;11516;-79
2023/12/01 04:34:26;;;;;;;;;52.50;41.75;;;;;;;;5064510;28;11582;-78
2023/12/01 04:36:54;;;;;;;;;56.00;42.50;;;;;;;;5070864;28;11619;-78
2023/12/01 04:39:21;;;;;;;;;38.00;37.00;;;;;;;;5070537;28;11588;-77
2023/12/01 04:41:51;;;;;;;;;51.75;42.75;;;;;;;;5072615;28;11554;-76
2023/12/01 04:44:18;;;;;;;;;50.75;41.75;;;;;;;;5072714;28;11568;-78
2023/12/01 04:46:47;;;;;;;;;44.50;39.75;;;;;;;;5069715;28;11639;-77
2023/12/01 04:49:14;;;;;;;;;44.00;37.75;;;;;;;;5062073;28;11577;-77
2023/12/01 04:51:41;;;;;;;;;44.25;37.50;;;;;;;;5072366;28;11598;-79
2023/12/01 04:54:09;;;;;;;;;53.75;43.00;;;;;;;;5070753;28;11573;-78
2023/12/01 04:56:36;;;;;;;;;53.00;41.50;;;;;;;;5069417;28;11567;-78
2023/12/01 04:59:05;;;;;;;;;43.75;38.50;;;;;;;;5067885;28;12503;-78
2023/12/01 05:01:35;;;;;;;;;47.00;40.00;;;;;;;;5069350;28;11608;-79
2023/12/01 05:04:02;;;;;;;;;44.00;39.75;;;;;;;;5070725;28;11616;-78
2023/12/01 05:06:30;;;;;;;;;52.00;42.00;;;;;;;;5071383;28;11551;-79
2023/12/01 05:09:02;;;;;;;;;46.50;39.25;;;;;;;;5075061;28;11571;-80
2023/12/01 05:11:31;;;;;;;;;49.25;42.75;;;;;;;;5067822;28;12344;-79
2023/12/01 05:13:58;;;;;;;;;49.75;41.25;;;;;;;;5067094;28;12389;-79
2023/12/01 05:16:26;;;;;;;;;56.00;45.25;;;;;;;;5067012;28;11531;-78
2023/12/01 05:18:54;;;;;;;;;56.50;46.50;;;;;;;;5067035;28;12358;-79
2023/12/01 05:21:21;;;;;;;;;49.75;42.75;;;;;;;;5065868;28;11641;-78
2023/12/01 05:23:48;;;;;;;;;51.75;39.50;;;;;;;;5055904;28;11631;-78
2023/12/01 05:26:16;;;;;;;;;56.25;44.25;;;;;;;;5066955;28;11948;-77
2023/12/01 05:28:43;;;;;;;;;46.50;41.75;;;;;;;;5066769;28;11689;-78
2023/12/01 05:31:10;;;;;;;;;51.00;39.75;;;;;;;;5066719;28;12301;-78
2023/12/01 05:33:39;;;;;;;;;48.00;42.00;;;;;;;;5067673;28;11567;-79
2023/12/01 05:36:08;;;;;;;;;53.25;40.75;;;;;;;;5066960;28;12266;-79
2023/12/01 05:38:35;;;;;;;;;46.00;41.25;;;;;;;;5067217;28;11540;-79
2023/12/01 05:41:02;;;;;;;;;49.00;41.50;;;;;;;;5066626;28;11535;-79
2023/12/01 05:43:34;;;;;;;;;36.50;33.25;;;;;;;;5067850;28;11688;-79
2023/12/01 05:46:01;;;;;;;;;52.00;44.50;;;;;;;;5066935;28;12318;-80
2023/12/01 05:48:30;;;;;;;;;47.75;39.50;;;;;;;;5068563;28;11646;-79
2023/12/01 05:50:58;;;;;;;;;50.50;42.25;;;;;;;;5067711;28;11960;-79
2023/12/01 05:53:25;;;;;;;;;49.50;42.25;;;;;;;;5069194;28;12326;-79
2023/12/01 05:55:55;;;;;;;;;47.25;41.00;;;;;;;;5069610;28;12150;-79
2023/12/01 05:58:24;;;;;;;;;56.50;46.50;;;;;;;;5071897;28;12385;-79
2023/12/01 06:00:52;;;;;;;;;64.00;51.00;;;;;;;;5069882;28;11514;-79
2023/12/01 06:03:20;;;;;;;;;50.75;42.00;;;;;;;;5071091;28;12410;-79
2023/12/01 06:05:48;;;;;;;;;52.50;44.25;;;;;;;;5070784;28;11678;-78
2023/12/01 06:08:17;;;;;;;;;55.50;42.00;;;;;;;;5071207;28;12291;-74
2023/12/01 06:10:44;;;;;;;;;48.00;42.25;;;;;;;;5071177;28;11534;-81
2023/12/01 06:13:11;;;;;;;;;57.25;45.75;;;;;;;;5073726;28;11566;-78
2023/12/01 06:15:38;;;;;;;;;55.75;43.50;;;;;;;;5081070;28;11558;-80
2023/12/01 06:18:06;;;;;;;;;46.75;39.75;;;;;;;;5069028;28;12393;-80
2023/12/01 06:20:34;;;;;;;;;56.25;45.50;;;;;;;;5071199;28;11700;-77
2023/12/01 06:23:05;;;;;;;;;48.00;41.75;;;;;;;;5070649;28;11655;-80
2023/12/01 06:25:36;;;;;;;;;52.67;46.33;;;;;;;;5072422;28;11635;-81
2023/12/01 06:28:05;;;;;;;;;52.50;41.00;;;;;;;;5071974;28;11669;-77
2023/12/01 06:30:34;;;;;;;;;55.25;43.00;;;;;;;;5073750;28;11569;-81
2023/12/01 06:33:05;;;;;;;;;62.00;49.33;;;;;;;;5075005;28;11549;-81
2023/12/01 06:35:35;;;;;;;;;46.25;39.50;;;;;;;;5069489;28;11578;-82
2023/12/01 06:38:02;;;;;;;;;61.75;46.75;;;;;;;;5074070;28;11652;-81
2023/12/01 06:40:33;;;;;;;;;50.25;40.75;;;;;;;;5070289;28;11570;-81
2023/12/01 06:43:02;;;;;;;;;53.00;42.50;;;;;;;;5075528;28;11572;-80
2023/12/01 06:45:29;;;;;;;;;41.25;40.25;;;;;;;;5075172;28;11559;-80
2023/12/01 06:47:59;;;;;;;;;32.75;32.75;;;;;;;;5072970;28;11536;-74
2023/12/01 06:50:26;;;;;;;;;54.25;43.00;;;;;;;;5076374;28;11660;-76
2023/12/01 06:52:58;;;;;;;;;60.33;45.67;;;;;;;;5074028;28;11708;-81
2023/12/01 06:55:26;;;;;;;;;49.25;41.50;;;;;;;;5073436;28;11555;-81
2023/12/01 06:57:53;;;;;;;;;58.25;41.50;;;;;;;;5071461;28;11649;-81
2023/12/01 07:00:30;;;;;;;;;55.33;46.67;;;;;;;;5068904;28;11528;-80
2023/12/01 07:02:57;;;;;;;;;56.67;47.33;;;;;;;;5069706;28;11598;-78
2023/12/01 07:05:25;;;;;;;;;57.67;43.33;;;;;;;;5070687;28;11574;-81
2023/12/01 07:07:53;;;;;;;;;56.00;46.00;;;;;;;;5070672;28;11548;-80
2023/12/01 07:10:21;;;;;;;;;60.00;45.33;;;;;;;;5066331;28;11670;-81
2023/12/01 07:12:48;;;;;;;;;55.67;46.67;;;;;;;;5069826;28;11532;-77
2023/12/01 07:15:20;;;;;;;;;55.67;42.00;;;;;;;;5067772;28;11659;-81
2023/12/01 07:17:50;;;;;;;;;58.67;49.00;;;;;;;;5070214;28;11567;-77
2023/12/01 07:20:18;;;;;;;;;60.33;47.33;;;;;;;;5068555;28;11568;-80
2023/12/01 07:22:46;;;;;;;;;56.00;47.00;;;;;;;;5069534;28;11563;-82
2023/12/01 07:25:21;;;;;;;;;47.67;43.67;;;;;;;;5068776;28;11671;-78
2023/12/01 07:27:49;;;;;;;;;57.33;46.00;;;;;;;;5069614;28;11666;-80
2023/12/01 07:30:16;;;;;;;;;57.00;45.33;;;;;;;;5056730;28;12374;-81
2023/12/01 07:32:44;;;;;;;;;67.00;47.00;;;;;;;;5068940;28;11579;-80
2023/12/01 07:35:13;;;;;;;;;59.33;46.00;;;;;;;;5069693;28;8868;-82
2023/12/01 07:37:42;;;;;;;;;61.00;51.00;;;;;;;;5069117;28;9607;-79
2023/12/01 07:40:10;;;;;;;;;57.67;46.00;;;;;;;;5069521;28;8840;-82
2023/12/01 07:42:37;;;;;;;;;66.33;53.67;;;;;;;;5068890;28;8895;-77
2023/12/01 07:45:14;;;;;;;;;58.00;47.00;;;;;;;;5070101;28;8940;-75
2023/12/01 07:47:41;;;;;;;;;49.67;41.67;;;;;;;;5069103;28;11646;-81
2023/12/01 07:50:14;;;;;;;;;69.00;52.00;;;;;;;;5068664;28;8841;-82
2023/12/01 07:52:41;;;;;;;;;60.67;51.33;;;;;;;;5069543;28;8995;-80
2023/12/01 07:55:09;;;;;;;;;67.33;53.67;;;;;;;;5069145;28;8832;-80
2023/12/01 07:57:38;;;;;;;;;60.00;47.00;;;;;;;;5070480;28;8853;-81
2023/12/01 08:00:14;;;;;;;;;59.67;50.67;;;;;;;;5069267;28;8864;-79
2023/12/01 08:02:43;;;;;;;;;60.00;47.67;;;;;;;;5068893;28;8809;-76
2023/12/01 08:05:18;;;;;;;;;58.67;45.00;;;;;;;;5068328;28;8882;-78
2023/12/01 08:07:51;;;;;;;;;54.00;43.00;;;;;;;;5069536;28;8864;-78
2023/12/01 08:10:18;;;;;;;;;56.67;43.00;;;;;;;;5068476;28;11599;-76
2023/12/01 08:12:47;;;;;;;;;59.00;43.67;;;;;;;;5069027;28;8899;-76
2023/12/01 08:15:14;;;;;;;;;55.33;46.00;;;;;;;;5068941;28;11673;-77
2023/12/01 08:17:42;;;;;;;;;46.67;40.00;;;;;;;;5068640;28;8879;-78
2023/12/01 08:20:10;;;;;;;;;53.33;43.67;;;;;;;;5069223;28;8853;-74
2023/12/01 08:22:41;;;;;;;;;56.67;48.00;;;;;;;;5072519;28;8865;-78
2023/12/01 08:25:10;;;;;;;;;55.33;46.00;;;;;;;;5071774;28;11562;-78
2023/12/01 08:27:39;;;;;;;;;60.67;47.67;;;;;;;;5071970;28;8986;-77
2023/12/01 08:30:07;;;;;;;;;55.00;47.67;;;;;;;;5071949;28;11544;-78
2023/12/01 08:32:39;;;;;;;;;56.33;47.00;;;;;;;;5066719;28;8978;-75
2023/12/01 08:35:07;;;;;;;;;50.67;44.67;;;;;;;;5056998;28;11603;-76
2023/12/01 08:37:39;;;;;;;;;58.33;45.33;;;;;;;;5068419;28;11563;-77
2023/12/01 08:40:11;;;;;;;;;63.00;51.33;;;;;;;;5067055;28;11614;-74
2023/12/01 08:42:40;;;;;;;;;52.67;43.33;;;;;;;;5067424;28;11543;-79
2023/12/01 08:45:08;;;;;;;;;61.00;47.00;;;;;;;;5070384;28;8847;-78
2023/12/01 08:47:35;;;;;;;;;57.33;43.33;;;;;;;;5068604;28;11579;-75
2023/12/01 08:50:03;;;;;;;;;52.67;43.33;;;;;;;;5068069;28;11711;-78
2023/12/01 08:52:30;;;;;;;;;54.67;43.67;;;;;;;;5066494;28;11617;-78
2023/12/01 08:54:59;;;;;;;;;58.00;46.33;;;;;;;;5067531;28;11534;-77
2023/12/01 08:57:26;;;;;;;;;46.33;40.67;;;;;;;;5067664;28;11576;-77
2023/12/01 08:59:56;;;;;;;;;61.67;45.67;;;;;;;;5067923;28;11525;-78
2023/12/01 09:02:24;;;;;;;;;54.67;46.00;;;;;;;;5058805;28;11628;-75
2023/12/01 09:04:51;;;;;;;;;54.33;45.00;;;;;;;;5059099;28;11525;-77
2023/12/01 09:07:18;;;;;;;;;58.67;45.00;;;;;;;;5066946;28;11543;-75
2023/12/01 09:09:45;;;;;;;;;57.00;45.67;;;;;;;;5067719;28;11665;-77
2023/12/01 09:12:14;;;;;;;;;55.67;45.67;;;;;;;;5065886;28;11536;-78
2023/12/01 09:14:42;;;;;;;;;52.33;44.33;;;;;;;;5068008;28;11534;-78
2023/12/01 09:17:09;;;;;;;;;27.33;18.33;;;;;;;;5066852;28;11586;-77
2023/12/01 09:19:36;;;;;;;;;57.00;43.67;;;;;;;;5067783;28;11519;-78
2023/12/01 09:22:03;;;;;;;;;50.67;43.00;;;;;;;;5066759;28;11619;-78
2023/12/01 09:24:30;;;;;;;;;59.33;48.00;;;;;;;;5068261;28;12339;-76
2023/12/01 09:26:57;;;;;;;;;57.67;45.67;;;;;;;;5067914;28;11565;-79
2023/12/01 09:29:26;;;;;;;;;55.75;41.75;;;;;;;;5069181;28;12419;-76
2023/12/01 09:31:53;;;;;;;;;46.75;40.00;;;;;;;;5071909;28;11522;-78
2023/12/01 09:34:21;;;;;;;;;68.33;50.00;;;;;;;;5071970;28;11564;-81
2023/12/01 09:36:48;;;;;;;;;53.67;44.33;;;;;;;;5072260;28;11559;-81
2023/12/01 09:39:16;;;;;;;;;41.00;39.25;;;;;;;;5071711;28;11545;-79
2023/12/01 09:41:43;;;;;;;;;58.67;43.67;;;;;;;;5060766;28;12337;-80
2023/12/01 09:44:10;;;;;;;;;43.33;41.00;;;;;;;;5071072;28;11569;-79
2023/12/01 09:46:40;;;;;;;;;54.33;44.00;;;;;;;;5071418;28;11625;-79
2023/12/01 09:49:07;;;;;;;;;49.00;41.25;;;;;;;;5070983;28;11575;-79
2023/12/01 09:51:36;;;;;;;;;52.00;41.67;;;;;;;;5071659;28;11574;-80
2023/12/01 09:54:04;;;;;;;;;45.67;35.33;;;;;;;;5071265;28;11542;-80
2023/12/01 09:56:32;;;;;;;;;49.67;41.00;;;;;;;;5071573;28;11555;-79
2023/12/01 09:59:00;;;;;;;;;51.50;42.75;;;;;;;;5070954;28;11666;-79
2023/12/01 10:01:27;;;;;;;;;53.67;43.00;;;;;;;;5071184;28;11607;-79
2023/12/01 10:03:56;;;;;;;;;49.33;43.67;;;;;;;;5071615;28;11581;-79
2023/12/01 10:06:23;;;;;;;;;59.33;46.67;;;;;;;;5074008;28;11768;-79
2023/12/01 10:08:51;;;;;;;;;45.67;39.33;;;;;;;;5073943;28;11729;-79
2023/12/01 10:11:21;;;;;;;;;58.00;43.00;;;;;;;;5074869;28;11541;-76
2023/12/01 10:13:52;;;;;;;;;57.50;40.25;;;;;;;;5074987;28;11552;-80
2023/12/01 10:16:20;;;;;;;;;40.50;39.25;;;;;;;;5076466;28;11595;-76
2023/12/01 10:18:59;;;;;;;;;47.00;41.25;;;;;;;;5075619;28;11534;-76
2023/12/01 10:21:46;;;;;;;;;46.00;41.25;;;;;;;;5078113;28;11583;-78
2023/12/01 10:24:15;;;;;;;;;51.50;42.00;;;;;;;;5073221;28;11520;-79
2023/12/01 10:26:42;;;;;;;;;41.75;33.00;;;;;;;;5071912;28;11539;-79
2023/12/01 10:29:28;;;;;;;;;50.33;39.33;;;;;;;;5072770;28;11539;-77
2023/12/01 10:31:57;;;;;;;;;56.00;43.00;;;;;;;;5070140;28;11536;-80
2023/12/01 10:34:26;;;;;;;;;59.67;45.00;;;;;;;;5073606;28;11588;-79
2023/12/01 10:36:53;;;;;;;;;46.25;40.00;;;;;;;;5070674;28;12341;-76
2023/12/01 10:39:25;;;;;;;;;53.00;42.00;;;;;;;;5069816;28;11588;-80
2023/12/01 10:41:53;;;;;;;;;55.00;43.75;;;;;;;;5069638;28;12324;-77
2023/12/01 10:44:23;;;;;;;;;45.50;40.50;;;;;;;;5069827;28;11525;-78
2023/12/01 10:46:51;;;;;;;;;54.25;40.50;;;;;;;;5070335;28;11671;-79
2023/12/01 10:49:21;;;;;;;;;54.00;42.00;;;;;;;;5068550;28;12336;-79
2023/12/01 10:51:52;;;;;;;;;43.50;40.00;;;;;;;;5070412;28;11550;-79
2023/12/01 10:54:23;;;;;;;;;53.67;43.33;;;;;;;;5069534;28;11563;-78
2023/12/01 10:56:58;;;;;;;;;42.50;40.00;;;;;;;;5069772;28;11536;-80
2023/12/01 10:59:27;;;;;;;;;52.25;42.00;;;;;;;;5069772;28;11672;-78
2023/12/01 11:01:54;;;;;;;;;40.00;32.50;;;;;;;;5069273;28;11528;-77
2023/12/01 11:04:26;;;;;;;;;64.33;45.67;;;;;;;;5070114;28;11547;-78
2023/12/01 11:07:13;;;;;;;;;51.25;40.25;;;;;;;;5069655;28;11679;-76
2023/12/01 11:09:54;;;;;;;;;60.00;49.67;;;;;;;;5048318;28;12349;-76
2023/12/01 11:12:31;;;;;;;;;54.67;42.00;;;;;;;;5069743;28;11688;-79
2023/12/01 11:15:05;;;;;;;;;53.33;44.67;;;;;;;;5069868;28;12298;-79
2023/12/01 11:17:32;;;;;;;;;54.33;42.67;;;;;;;;5070824;28;11550;-82
2023/12/01 11:19:59;;;;;;;;;57.67;44.33;;;;;;;;5071099;28;11687;-79
2023/12/01 11:22:32;;;;;;;;;55.50;45.50;;;;;;;;5059559;28;12061;-78
2023/12/01 11:25:01;;;;;;;;;54.00;45.00;;;;;;;;5069587;28;11646;-79
2023/12/01 11:27:28;;;;;;;;;60.25;43.00;;;;;;;;5069673;28;11601;-79
2023/12/01 11:30:00;;;;;;;;;48.50;42.25;;;;;;;;5069484;28;11665;-78
2023/12/01 11:32:33;;;;;;;;;41.25;37.50;;;;;;;;5061319;28;11614;-80
2023/12/01 11:35:09;;;;;;;;;44.75;39.50;;;;;;;;5049052;28;11541;-79
2023/12/01 11:38:00;;;;;;;;;60.75;46.00;;;;;;;;5048711;28;11549;-79
2023/12/01 11:40:28;;;;;;;;;53.50;43.50;;;;;;;;5049401;28;12517;-79
2023/12/01 11:42:57;;;;;;;;;60.25;44.75;;;;;;;;5048780;28;11683;-79
2023/12/01 11:45:37;;;;;;;;;55.67;44.00;;;;;;;;5049887;28;11553;-79
2023/12/01 11:48:08;;;;;;;;;44.50;38.75;;;;;;;;5041242;28;11545;-75
2023/12/01 11:50:39;;;;;;;;;53.25;41.50;;;;;;;;5054432;28;11564;-78
2023/12/01 11:53:13;;;;;;;;;50.50;39.75;;;;;;;;5052430;28;11559;-76
2023/12/01 11:55:41;;;;;;;;;40.50;39.25;;;;;;;;5052436;28;11550;-78
2023/12/01 11:58:17;;;;;;;;;43.75;33.25;;;;;;;;5052357;28;11564;-79
2023/12/01 12:00:45;;;;;;;;;51.00;41.50;;;;;;;;5053769;28;11627;-80
2023/12/01 12:03:20;;;;;;;;;57.33;46.00;;;;;;;;5048111;28;11674;-79
2023/12/01 12:05:48;;;;;;;;;59.33;48.00;;;;;;;;5053525;28;12345;-77
2023/12/01 12:08:17;;;;;;;;;46.67;41.33;;;;;;;;5047846;28;11564;-77
2023/12/01 12:10:45;;;;;;;;;54.75;44.50;;;;;;;;5054003;28;11586;-77
2023/12/01 12:13:12;;;;;;;;;54.75;44.25;;;;;;;;5050148;28;11546;-79
2023/12/01 12:15:40;;;;;;;;;49.00;43.25;;;;;;;;5050265;28;11658;-79
2023/12/01 12:18:08;;;;;;;;;42.75;39.00;;;;;;;;5051519;28;11702;-79
2023/12/01 12:20:35;;;;;;;;;38.50;36.50;;;;;;;;5050787;28;11564;-79
2023/12/01 12:23:03;;;;;;;;;48.00;40.00;;;;;;;;5050021;28;11648;-80
2023/12/01 12:25:37;;;;;;;;;51.00;43.50;;;;;;;;5048662;28;11651;-76
2023/12/01 12:28:10;;;;;;;;;47.50;40.25;;;;;;;;5047643;28;11571;-78
2023/12/01 12:30:37;;;;;;;;;38.00;29.50;;;;;;;;5048258;28;11499;-77
2023/12/01 12:33:06;;;;;;;;;50.00;40.50;;;;;;;;5047460;28;12375;-77
2023/12/01 12:35:33;;;;;;;;;54.00;40.75;;;;;;;;5048738;28;11713;-76
2023/12/01 12:38:02;;;;;;;;;42.25;38.75;;;;;;;;5047005;28;11559;-81
2023/12/01 12:40:34;;;;;;;;;49.25;39.75;;;;;;;;5048357;28;11664;-78
2023/12/01 12:43:06;;;;;;;;;39.50;38.00;;;;;;;;5046992;28;11577;-77
2023/12/01 12:45:33;;;;;;;;;45.00;38.50;;;;;;;;5048298;28;11610;-78
2023/12/01 12:48:09;;;;;;;;;47.25;42.50;;;;;;;;5045298;28;11559;-80
2023/12/01 12:50:45;;;;;;;;;42.00;35.00;;;;;;;;5048345;28;11673;-80
2023/12/01 12:53:25;;;;;;;;;41.00;39.00;;;;;;;;5038089;28;11588;-79
2023/12/01 12:55:52;;;;;;;;;48.00;40.75;;;;;;;;5048244;28;11579;-77
2023/12/01 12:58:20;;;;;;;;;55.33;45.33;;;;;;;;5048057;28;11600;-76
2023/12/01 13:00:48;;;;;;;;;38.00;36.25;;;;;;;;5047620;28;11512;-76
2023/12/01 13:03:15;;;;;;;;;42.50;39.00;;;;;;;;5047932;28;12488;-81
2023/12/01 13:05:44;;;;;;;;;34.25;27.50;;;;;;;;5047507;28;11583;-78
2023/12/01 13:08:12;;;;;;;;;31.25;28.00;;;;;;;;5047411;28;11579;-79
2023/12/01 13:10:39;;;;;;;;;25.00;25.00;;;;;;;;5048285;28;11722;-77
2023/12/01 13:13:07;;;;;;;;;47.25;39.00;;;;;;;;5047369;28;12375;-75
2023/12/01 13:15:35;;;;;;;;;34.75;33.00;;;;;;;;5045697;28;11732;-75
2023/12/01 13:18:02;;;;;;;;;38.00;33.75;;;;;;;;5047296;28;11578;-78
2023/12/01 13:20:31;;;;;;;;;46.50;40.00;;;;;;;;5047548;28;11551;-82
2023/12/01 13:22:58;;;;;;;;;50.75;42.25;;;;;;;;5047493;28;11719;-82
2023/12/01 13:25:26;;;;;;;;;63.00;49.00;;;;;;;;5048102;28;12397;-78
2023/12/01 13:27:53;;;;;;;;;51.33;42.67;;;;;;;;5047250;28;11585;-81
2023/12/01 13:30:20;;;;;;;;;40.75;33.75;;;;;;;;5047380;28;8871;-81
2023/12/01 13:32:48;;;;;;;;;34.50;33.25;;;;;;;;5047754;28;12387;-78
2023/12/01 13:35:16;;;;;;;;;41.50;33.00;;;;;;;;5047412;28;12294;-81
2023/12/01 13:37:43;;;;;;;;;18.75;18.25;;;;;;;;5047567;28;11556;-81
2023/12/01 13:40:11;;;;;;;;;34.75;30.50;;;;;;;;5047643;28;11572;-78
2023/12/01 13:42:38;;;;;;;;;35.75;33.25;;;;;;;;5048351;28;11588;-81
2023/12/01 13:45:07;;;;;;;;;32.50;31.00;;;;;;;;5048586;28;11676;-80
2023/12/01 13:47:35;;;;;;;;;44.25;34.00;;;;;;;;5050160;28;11596;-81
2023/12/01 13:50:04;;;;;;;;;44.00;39.50;;;;;;;;5051538;28;11576;-82
2023/12/01 13:52:32;;;;;;;;;45.75;37.00;;;;;;;;5050204;28;11707;-82
2023/12/01 13:54:59;;;;;;;;;42.00;38.00;;;;;;;;5045151;28;11575;-81
2023/12/01 13:57:27;;;;;;;;;44.25;38.50;;;;;;;;5050754;28;11678;-78
2023/12/01 13:59:55;;;;;;;;;44.50;35.25;;;;;;;;5045730;28;11604;-79
2023/12/01 14:02:22;;;;;;;;;35.75;32.00;;;;;;;;5050445;28;11528;-80
2023/12/01 14:04:50;;;;;;;;;44.00;36.25;;;;;;;;5048295;28;12292;-82
2023/12/01 14:07:18;;;;;;;;;50.67;40.00;;;;;;;;5047695;28;11562;-78
2023/12/01 14:09:45;;;;;;;;;50.67;44.00;;;;;;;;5049867;28;11561;-80
2023/12/01 14:12:13;;;;;;;;;47.00;41.00;;;;;;;;5050155;28;11582;-78
2023/12/01 14:14:40;;;;;;;;;35.25;35.25;;;;;;;;5049637;28;11697;-80
2023/12/01 14:17:07;;;;;;;;;48.33;43.67;;;;;;;;5048929;28;11570;-82
2023/12/01 14:19:35;;;;;;;;;37.50;36.75;;;;;;;;5045078;28;11612;-79
2023/12/01 14:22:02;;;;;;;;;35.50;30.75;;;;;;;;5049232;28;11563;-82
2023/12/01 14:24:31;;;;;;;;;34.50;32.75;;;;;;;;5050707;28;11568;-76
2023/12/01 14:26:58;;;;;;;;;37.75;32.00;;;;;;;;5050668;28;11571;-78